Time;durP1;ratioP1;P1;durP2;ratioP2;P2;SDS_P1;SDS_P2;PMS_P1;PMS_P2;Temp;Humidity;BMP_temperature;BMP_pressure;BME280_temperature;BME280_humidity;BME280_pressure;Samples;Min_cycle;Max_cycle;Signal;HPM_P1;HPM_P2
2022/11/28 00:00:30;;;;;;;14.48;9.95;;;9.50;73.80;;;;;;5056966;28;20517;-74
2022/11/28 00:02:57;;;;;;;16.98;11.43;;;9.50;73.60;;;;;;5060673;28;20121;-75
2022/11/28 00:05:22;;;;;;;15.18;10.45;;;9.60;73.30;;;;;;5059919;28;20060;-76
2022/11/28 00:07:48;;;;;;;16.50;9.77;;;9.70;73.30;;;;;;5052243;28;20032;-75
2022/11/28 00:10:13;;;;;;;15.98;10.93;;;9.70;73.10;;;;;;5044074;28;20029;-75
2022/11/28 00:12:39;;;;;;;17.80;10.30;;;9.60;73.00;;;;;;5038553;28;20038;-74
2022/11/28 00:15:05;;;;;;;14.77;10.13;;;9.60;73.10;;;;;;5046378;28;20068;-74
2022/11/28 00:17:31;;;;;;;12.77;9.23;;;9.50;73.00;;;;;;5043861;28;20104;-76
2022/11/28 00:19:57;;;;;;;12.90;8.95;;;9.50;73.10;;;;;;5044921;28;20095;-74
2022/11/28 00:22:26;;;;;;;13.77;10.00;;;9.30;73.20;;;;;;5023989;28;20067;-75
2022/11/28 00:24:52;;;;;;;13.23;9.18;;;9.40;73.30;;;;;;5025944;28;20124;-75
2022/11/28 00:27:17;;;;;;;14.20;10.02;;;9.40;73.40;;;;;;5052895;28;20151;-76
2022/11/28 00:29:43;;;;;;;13.10;9.15;;;9.40;73.50;;;;;;5048353;28;20489;-76
2022/11/28 00:32:09;;;;;;;14.93;8.20;;;9.40;73.30;;;;;;5052628;28;21683;-76
2022/11/28 00:34:34;;;;;;;14.25;9.32;;;9.40;73.40;;;;;;5048799;28;20038;-76
2022/11/28 00:37:00;;;;;;;11.95;8.48;;;9.40;73.40;;;;;;5038908;28;20044;-76
2022/11/28 00:39:25;;;;;;;12.75;8.15;;;9.40;73.30;;;;;;5050520;28;20021;-76
2022/11/28 00:41:51;;;;;;;16.45;9.82;;;9.30;73.30;;;;;;5044791;28;20036;-76
2022/11/28 00:44:17;;;;;;;12.10;7.85;;;9.20;73.40;;;;;;5049028;28;20429;-76
2022/11/28 00:46:42;;;;;;;11.82;8.20;;;9.10;73.50;;;;;;5046752;28;20465;-75
2022/11/28 00:49:08;;;;;;;11.02;7.60;;;9.10;73.80;;;;;;5049491;28;20163;-75
2022/11/28 00:51:34;;;;;;;13.73;8.68;;;9.10;73.70;;;;;;5046257;28;20030;-75
2022/11/28 00:54:02;;;;;;;13.35;8.70;;;9.10;73.80;;;;;;5046075;28;20033;-75
2022/11/28 00:56:32;;;;;;;12.48;9.30;;;9.00;73.80;;;;;;5052046;28;20048;-75
2022/11/28 00:58:58;;;;;;;16.40;10.52;;;8.70;74.50;;;;;;5050128;28;20103;-75
2022/11/28 01:01:30;;;;;;;16.45;10.30;;;8.50;75.80;;;;;;5048881;28;20546;-75
2022/11/28 01:03:58;;;;;;;17.73;10.00;;;8.40;76.30;;;;;;5048067;28;20389;-75
2022/11/28 01:06:29;;;;;;;13.80;9.05;;;8.10;77.20;;;;;;5042126;28;20468;-75
2022/11/28 01:08:58;;;;;;;14.88;9.10;;;7.90;77.80;;;;;;5043718;28;20047;-75
2022/11/28 01:11:24;;;;;;;14.45;8.10;;;8.10;77.60;;;;;;5049550;28;20017;-75
2022/11/28 01:13:52;;;;;;;11.68;8.10;;;8.30;76.70;;;;;;5050072;28;20531;-76
2022/11/28 01:16:17;;;;;;;10.43;7.30;;;8.50;76.50;;;;;;5039545;28;20021;-76
2022/11/28 01:18:43;;;;;;;9.93;7.03;;;8.70;76.20;;;;;;5022345;28;20040;-77
2022/11/28 01:21:09;;;;;;;10.80;6.82;;;8.80;75.80;;;;;;5028375;28;20029;-75
2022/11/28 01:23:36;;;;;;;13.63;6.88;;;9.00;75.60;;;;;;5045059;28;20112;-74
2022/11/28 01:26:03;;;;;;;10.23;6.88;;;9.10;75.20;;;;;;5048070;28;20045;-75
2022/11/28 01:28:29;;;;;;;8.60;5.60;;;9.20;74.90;;;;;;5046292;28;20024;-76
2022/11/28 01:30:55;;;;;;;9.35;6.50;;;9.30;74.70;;;;;;5049878;28;20567;-75
2022/11/28 01:33:20;;;;;;;10.35;6.18;;;9.30;74.40;;;;;;5050713;28;20108;-76
2022/11/28 01:35:56;;;;;;;9.05;6.07;;;9.40;74.00;;;;;;5046854;28;20469;-76
2022/11/28 01:38:22;;;;;;;8.27;5.90;;;9.40;73.90;;;;;;5048640;28;20096;-75
2022/11/28 01:40:48;;;;;;;8.75;6.20;;;9.30;73.50;;;;;;5037877;28;20060;-75
2022/11/28 01:43:14;;;;;;;9.93;6.45;;;9.30;72.70;;;;;;5048083;28;20473;-75
2022/11/28 01:45:40;;;;;;;8.85;5.82;;;9.30;73.00;;;;;;5047722;28;20029;-76
2022/11/28 01:48:07;;;;;;;8.60;5.38;;;9.30;72.90;;;;;;5028760;28;20093;-76
2022/11/28 01:50:35;;;;;;;8.52;5.70;;;9.30;73.10;;;;;;5048425;28;20024;-76
2022/11/28 01:53:05;;;;;;;9.40;6.10;;;9.30;73.10;;;;;;5049951;28;20024;-76
2022/11/28 01:55:34;;;;;;;;;;;9.30;72.60;;;;;;5048530;28;20029;-75
2022/11/28 01:58:00;;;;;;;8.48;5.60;;;9.30;72.70;;;;;;5045690;28;19913;-75
2022/11/28 02:00:26;;;;;;;7.88;5.78;;;9.30;72.80;;;;;;5042933;28;20484;-76
2022/11/28 02:02:58;;;;;;;7.95;5.63;;;9.30;72.30;;;;;;5052995;28;20047;-76
2022/11/28 02:05:24;;;;;;;7.57;5.70;;;9.30;72.60;;;;;;5053861;28;20067;-75
2022/11/28 02:07:50;;;;;;;7.43;5.07;;;9.30;72.70;;;;;;5030277;28;20442;-75
2022/11/28 02:10:39;;;;;;;8.60;5.45;;;9.30;72.70;;;;;;5049043;28;20021;-75
2022/11/28 02:13:05;;;;;;;6.65;4.97;;;9.30;72.70;;;;;;5043677;28;20048;-75
2022/11/28 02:15:52;;;;;;;9.95;6.10;;;9.30;72.70;;;;;;5049269;28;20025;-75
2022/11/28 02:18:36;;;;;;;8.45;5.50;;;9.30;72.50;;;;;;5049573;28;20292;-75
2022/11/28 02:21:22;;;;;;;8.55;5.38;;;9.40;72.20;;;;;;5048532;28;20112;-74
2022/11/28 02:24:29;;;;;;;10.02;5.82;;;9.30;72.20;;;;;;5048790;28;20040;-75
2022/11/28 02:27:37;;;;;;;10.65;6.68;;;9.30;72.50;;;;;;5047090;28;20108;-75
2022/11/28 02:30:35;;;;;;;9.82;6.05;;;9.30;72.50;;;;;;5044006;28;20114;-74
2022/11/28 02:33:11;;;;;;;7.50;5.40;;;9.30;72.40;;;;;;4974952;28;20046;-75
2022/11/28 02:36:08;;;;;;;7.50;5.20;;;9.30;72.50;;;;;;5053344;28;20461;-76
2022/11/28 02:38:55;;;;;;;7.95;5.65;;;9.30;72.50;;;;;;5049840;28;20110;-76
2022/11/28 02:41:30;;;;;;;7.38;5.60;;;9.20;72.40;;;;;;5051171;28;20033;-77
2022/11/28 02:44:09;;;;;;;9.27;5.90;;;9.20;72.60;;;;;;5047526;28;20443;-77
2022/11/28 02:46:42;;;;;;;9.23;5.55;;;9.20;72.70;;;;;;5055354;28;20036;-76
2022/11/28 02:49:32;;;;;;;9.25;6.35;;;9.30;72.70;;;;;;5050163;28;20030;-77
2022/11/28 02:52:07;;;;;;;8.75;5.70;;;9.30;72.60;;;;;;5038611;28;20041;-77
2022/11/28 02:54:34;;;;;;;8.02;5.60;;;9.30;72.40;;;;;;5055004;28;20105;-77
2022/11/28 02:56:59;;;;;;;10.10;5.78;;;9.30;72.30;;;;;;5051533;28;20513;-77
2022/11/28 02:59:37;;;;;;;8.15;5.32;;;9.30;72.10;;;;;;5045902;28;20033;-77
2022/11/28 03:02:05;;;;;;;8.50;5.43;;;9.40;72.30;;;;;;5036555;28;20108;-76
2022/11/28 03:04:50;;;;;;;7.13;5.07;;;9.30;72.20;;;;;;5050271;28;20071;-77
2022/11/28 03:07:36;;;;;;;8.32;5.20;;;9.30;72.30;;;;;;5048642;28;20392;-76
2022/11/28 03:10:09;;;;;;;7.75;5.05;;;9.20;72.00;;;;;;5052000;28;20033;-76
2022/11/28 03:13:01;;;;;;;7.85;4.93;;;9.20;72.10;;;;;;5052686;28;20029;-76
2022/11/28 03:16:14;;;;;;;8.98;5.85;;;9.20;72.20;;;;;;5047670;28;20477;-76
2022/11/28 03:19:17;;;;;;;8.60;5.88;;;9.20;72.10;;;;;;4993239;28;20112;-76
2022/11/28 03:21:54;;;;;;;8.32;5.97;;;9.20;72.20;;;;;;5025822;28;20033;-75
2022/11/28 03:24:49;;;;;;;7.97;5.60;;;9.10;72.00;;;;;;5043963;28;20033;-75
2022/11/28 03:27:18;;;;;;;8.63;5.88;;;9.10;72.30;;;;;;5043291;28;20032;-75
2022/11/28 03:29:49;;;;;;;7.78;5.60;;;9.10;72.30;;;;;;5046689;28;20033;-75
2022/11/28 03:32:21;;;;;;;8.98;5.20;;;9.20;72.20;;;;;;5048597;28;20162;-75
2022/11/28 03:34:56;;;;;;;8.30;5.43;;;9.10;72.10;;;;;;5044545;28;20087;-75
2022/11/28 03:37:27;;;;;;;8.40;6.07;;;9.10;72.10;;;;;;5049584;28;20069;-75
2022/11/28 03:39:58;;;;;;;8.50;5.93;;;9.10;72.50;;;;;;5045061;28;20033;-75
2022/11/28 03:42:28;;;;;;;6.90;5.07;;;9.10;71.90;;;;;;5041778;28;20386;-75
2022/11/28 03:45:09;;;;;;;6.65;4.50;;;9.10;71.90;;;;;;5042505;28;20370;-75
2022/11/28 03:47:42;;;;;;;10.10;4.80;;;9.00;71.90;;;;;;5052268;28;20041;-74
2022/11/28 03:50:25;;;;;;;9.32;4.78;;;9.00;72.10;;;;;;5044846;28;20059;-75
2022/11/28 03:53:00;;;;;;;6.32;4.35;;;9.00;72.20;;;;;;5050328;28;20032;-75
2022/11/28 03:55:44;;;;;;;6.40;4.57;;;9.10;72.20;;;;;;5053807;28;20100;-75
2022/11/28 03:58:46;;;;;;;6.55;4.63;;;9.10;71.90;;;;;;5047162;28;20543;-75
2022/11/28 04:01:28;;;;;;;6.20;4.25;;;9.10;71.80;;;;;;5044817;28;20029;-75
2022/11/28 04:04:17;;;;;;;7.93;4.63;;;9.20;71.70;;;;;;5052830;28;20536;-75
2022/11/28 04:07:15;;;;;;;7.43;4.45;;;9.20;71.90;;;;;;5053291;28;20041;-76
2022/11/28 04:09:54;;;;;;;6.97;4.90;;;9.20;71.70;;;;;;5010527;28;20428;-76
2022/11/28 04:12:55;;;;;;;6.40;4.43;;;9.20;71.60;;;;;;5055104;28;20017;-76
2022/11/28 04:15:50;;;;;;;6.93;4.60;;;9.20;71.80;;;;;;5052567;28;20032;-76
2022/11/28 04:18:30;;;;;;;5.97;4.22;;;9.20;71.70;;;;;;4981600;28;20677;-76
2022/11/28 04:21:13;;;;;;;7.47;4.78;;;9.30;71.40;;;;;;5050589;28;20056;-75
2022/11/28 04:23:42;;;;;;;8.52;5.00;;;9.30;71.40;;;;;;5044416;28;20037;-76
2022/11/28 04:26:20;;;;;;;7.38;5.10;;;9.20;71.40;;;;;;5047752;28;20074;-75
2022/11/28 04:28:48;;;;;;;7.63;5.53;;;9.30;71.10;;;;;;5033549;28;20079;-75
2022/11/28 04:31:16;;;;;;;14.73;6.07;;;9.30;71.10;;;;;;5044887;28;20465;-75
2022/11/28 04:33:46;;;;;;;8.52;5.38;;;9.20;71.00;;;;;;5052355;28;20539;-76
2022/11/28 04:36:15;;;;;;;7.22;5.07;;;9.20;71.20;;;;;;5030908;28;20072;-76
2022/11/28 04:38:42;;;;;;;6.45;4.63;;;9.20;71.10;;;;;;5050369;28;20029;-75
2022/11/28 04:41:36;;;;;;;7.57;5.10;;;9.10;71.40;;;;;;5044230;28;20043;-75
2022/11/28 04:44:12;;;;;;;8.65;5.53;;;9.10;71.50;;;;;;5053241;28;20566;-76
2022/11/28 04:46:46;;;;;;;9.50;5.25;;;9.00;71.80;;;;;;5026843;28;20033;-76
2022/11/28 04:49:13;;;;;;;7.63;4.90;;;8.90;71.80;;;;;;5051781;28;20176;-75
2022/11/28 04:52:18;;;;;;;7.90;5.00;;;8.90;71.90;;;;;;5042051;28;20108;-75
2022/11/28 04:55:03;;;;;;;9.68;5.22;;;8.80;72.00;;;;;;5036974;28;20037;-76
2022/11/28 04:57:34;;;;;;;7.80;5.28;;;8.80;72.30;;;;;;5045083;28;20029;-76
2022/11/28 05:00:03;;;;;;;7.45;4.43;;;8.80;72.20;;;;;;5048561;28;20453;-76
2022/11/28 05:02:29;;;;;;;8.27;5.63;;;8.90;72.30;;;;;;5047733;28;20088;-76
2022/11/28 05:04:55;;;;;;;7.90;5.47;;;8.80;72.30;;;;;;5044985;28;20508;-76
2022/11/28 05:07:23;;;;;;;6.80;4.82;;;8.90;72.30;;;;;;5049002;28;20049;-76
2022/11/28 05:09:48;;;;;;;5.97;4.32;;;8.90;72.00;;;;;;5050131;28;20108;-76
2022/11/28 05:12:14;;;;;;;7.95;5.03;;;9.00;71.90;;;;;;5050048;28;20116;-77
2022/11/28 05:14:40;;;;;;;7.05;4.38;;;9.00;71.90;;;;;;5047765;28;20032;-75
2022/11/28 05:17:06;;;;;;;4.72;3.47;;;8.90;71.90;;;;;;5044267;28;20037;-75
2022/11/28 05:19:32;;;;;;;6.38;3.75;;;8.80;72.10;;;;;;5047904;28;21491;-76
2022/11/28 05:21:57;;;;;;;7.93;4.07;;;8.80;72.10;;;;;;5050038;28;20032;-76
2022/11/28 05:24:23;;;;;;;6.28;4.60;;;8.70;72.30;;;;;;5033384;28;20033;-75
2022/11/28 05:26:49;;;;;;;5.68;4.05;;;8.70;72.50;;;;;;5052793;28;20029;-76
2022/11/28 05:29:15;;;;;;;8.65;4.53;;;8.70;72.60;;;;;;5048522;28;20036;-75
2022/11/28 05:31:41;;;;;;;5.40;3.50;;;8.70;72.50;;;;;;5046931;28;20028;-75
2022/11/28 05:34:06;;;;;;;8.80;4.53;;;8.80;72.50;;;;;;5049166;28;20075;-74
2022/11/28 05:36:32;;;;;;;6.82;3.95;;;8.80;72.60;;;;;;5044331;28;20045;-75
2022/11/28 05:38:58;;;;;;;6.82;4.25;;;8.90;72.70;;;;;;5052196;28;20061;-75
2022/11/28 05:41:28;;;;;;;7.90;4.40;;;9.00;72.40;;;;;;5051643;28;20433;-75
2022/11/28 05:43:58;;;;;;;5.72;3.78;;;9.10;72.00;;;;;;5044828;28;20033;-75
2022/11/28 05:46:25;;;;;;;6.60;4.18;;;9.10;71.80;;;;;;5047294;28;20053;-75
2022/11/28 05:48:51;;;;;;;5.30;3.88;;;9.20;71.60;;;;;;5047340;28;20036;-75
2022/11/28 05:51:17;;;;;;;5.40;3.83;;;9.10;71.30;;;;;;5047255;28;20025;-75
2022/11/28 05:53:43;;;;;;;5.30;3.88;;;9.10;71.60;;;;;;5041149;28;20037;-76
2022/11/28 05:56:11;;;;;;;4.95;3.30;;;9.10;71.50;;;;;;5048234;28;20381;-76
2022/11/28 05:58:37;;;;;;;6.13;4.28;;;9.10;71.60;;;;;;5048562;28;20033;-75
2022/11/28 06:01:15;;;;;;;7.57;4.22;;;9.10;71.50;;;;;;5046573;28;20033;-74
2022/11/28 06:03:41;;;;;;;6.72;4.25;;;9.20;71.10;;;;;;5050905;28;20044;-75
2022/11/28 06:06:17;;;;;;;5.93;4.10;;;9.20;71.10;;;;;;5043912;28;20045;-75
2022/11/28 06:08:43;;;;;;;7.80;3.90;;;9.20;70.60;;;;;;5048431;28;20020;-74
2022/11/28 06:11:11;;;;;;;6.90;3.60;;;9.20;70.40;;;;;;5049309;28;20112;-74
2022/11/28 06:13:36;;;;;;;7.28;3.85;;;9.30;70.60;;;;;;5053374;28;20063;-77
2022/11/28 06:16:06;;;;;;;6.07;4.07;;;9.30;70.70;;;;;;5056026;28;20441;-78
2022/11/28 06:18:32;;;;;;;;;;;9.30;70.70;;;;;;5057477;28;20078;-78
2022/11/28 06:21:01;;;;;;;6.35;3.40;;;9.30;71.10;;;;;;5055944;28;19995;-78
2022/11/28 06:23:27;;;;;;;4.38;3.53;;;9.30;70.80;;;;;;5054138;28;20024;-78
2022/11/28 06:25:53;;;;;;;5.13;3.72;;;9.40;71.20;;;;;;5039829;28;20162;-78
2022/11/28 06:28:18;;;;;;;4.03;3.15;;;9.40;70.50;;;;;;5053280;28;20116;-78
2022/11/28 06:30:44;;;;;;;3.38;2.92;;;9.40;70.40;;;;;;5053274;28;20033;-79
2022/11/28 06:33:10;;;;;;;5.75;3.20;;;9.40;70.40;;;;;;5038294;28;20037;-79
2022/11/28 06:35:35;;;;;;;4.35;3.00;;;9.40;70.20;;;;;;5051611;28;20116;-78
2022/11/28 06:38:01;;;;;;;4.85;3.13;;;9.50;70.30;;;;;;5048135;28;20493;-78
2022/11/28 06:40:27;;;;;;;8.88;3.20;;;9.50;70.30;;;;;;5047807;28;20032;-78
2022/11/28 06:42:52;;;;;;;5.13;3.25;;;9.50;70.90;;;;;;5054034;28;20501;-80
2022/11/28 06:45:18;;;;;;;6.72;3.80;;;9.40;70.00;;;;;;5056967;28;20021;-79
2022/11/28 06:47:44;;;;;;;5.70;3.90;;;9.40;70.20;;;;;;5056596;28;20021;-75
2022/11/28 06:50:09;;;;;;;10.25;5.85;;;9.40;70.20;;;;;;5057111;28;20032;-75
2022/11/28 06:52:35;;;;;;;6.72;4.75;;;9.30;69.70;;;;;;5056189;28;20039;-75
2022/11/28 06:55:01;;;;;;;7.80;4.40;;;9.30;70.20;;;;;;5051288;28;20472;-76
2022/11/28 06:57:26;;;;;;;6.40;4.32;;;9.40;70.60;;;;;;5054622;28;20025;-74
2022/11/28 06:59:52;;;;;;;11.30;5.30;;;9.30;70.50;;;;;;5059331;28;20036;-76
2022/11/28 07:02:18;;;;;;;8.27;4.55;;;9.30;71.20;;;;;;5055570;28;20028;-80
2022/11/28 07:04:43;;;;;;;7.72;3.88;;;9.20;70.50;;;;;;5046748;28;20469;-77
2022/11/28 07:07:09;;;;;;;5.45;3.92;;;9.10;70.90;;;;;;5060915;28;20033;-78
2022/11/28 07:09:34;;;;;;;4.97;3.17;;;9.00;70.90;;;;;;5052635;28;20028;-74
2022/11/28 07:12:00;;;;;;;5.32;2.78;;;9.00;71.00;;;;;;5051289;28;20025;-74
2022/11/28 07:14:26;;;;;;;5.30;3.10;;;9.00;71.10;;;;;;5055095;28;20116;-75
2022/11/28 07:16:52;;;;;;;3.38;2.50;;;9.00;71.00;;;;;;5051510;28;20033;-75
2022/11/28 07:19:21;;;;;;;5.15;3.17;;;9.10;71.10;;;;;;5054024;28;20172;-75
2022/11/28 07:21:49;;;;;;;7.63;2.27;;;9.20;71.20;;;;;;5054836;28;20025;-75
2022/11/28 07:24:18;;;;;;;5.95;3.42;;;9.20;71.20;;;;;;5046709;28;20086;-80
2022/11/28 07:26:44;;;;;;;14.13;3.83;;;9.30;71.80;;;;;;5029728;28;20426;-80
2022/11/28 07:29:14;;;;;;;6.70;3.70;;;9.10;70.90;;;;;;5043468;28;20113;-81
2022/11/28 07:31:40;;;;;;;9.20;3.10;;;9.00;71.40;;;;;;5044157;28;20037;-81
2022/11/28 07:34:06;;;;;;;9.50;3.38;;;8.90;71.70;;;;;;5051168;28;20029;-80
2022/11/28 07:36:32;;;;;;;6.70;3.55;;;8.90;71.70;;;;;;5028925;28;20033;-80
2022/11/28 07:39:00;;;;;;;4.35;2.83;;;8.90;71.80;;;;;;5043323;28;20481;-80
2022/11/28 07:41:26;;;;;;;5.07;2.88;;;9.00;71.70;;;;;;5045628;28;20439;-81
2022/11/28 07:43:57;;;;;;;3.50;2.53;;;9.10;71.70;;;;;;5046803;28;20021;-81
2022/11/28 07:46:24;;;;;;;4.45;2.83;;;9.10;71.70;;;;;;5038230;28;20033;-81
2022/11/28 07:48:50;;;;;;;5.03;3.20;;;9.10;71.60;;;;;;5041616;28;20029;-81
2022/11/28 07:51:22;;;;;;;5.88;3.90;;;9.10;71.50;;;;;;5042856;28;20035;-80
2022/11/28 07:53:48;;;;;;;5.85;2.90;;;9.10;71.10;;;;;;5046149;28;20493;-80
2022/11/28 07:56:20;;;;;;;4.97;3.20;;;9.10;71.40;;;;;;5054332;28;20036;-81
2022/11/28 07:58:47;;;;;;;8.27;3.22;;;9.10;71.30;;;;;;5043884;28;20377;-80
2022/11/28 08:01:19;;;;;;;3.20;2.60;;;9.10;71.50;;;;;;5048408;28;20145;-80
2022/11/28 08:03:46;;;;;;;9.50;2.67;;;9.10;71.40;;;;;;5046063;28;20128;-80
2022/11/28 08:06:16;;;;;;;5.18;3.17;;;9.10;71.60;;;;;;5046457;28;20075;-81
2022/11/28 08:08:42;;;;;;;;;;;9.10;71.60;;;;;;5043183;28;20027;-80
2022/11/28 08:11:09;;;;;;;4.20;2.53;;;9.20;71.70;;;;;;5045895;28;19916;-80
2022/11/28 08:13:38;;;;;;;9.02;3.30;;;9.30;71.50;;;;;;5046032;28;20047;-81
2022/11/28 08:16:11;;;;;;;8.98;3.70;;;9.40;71.40;;;;;;5043620;28;20026;-80
2022/11/28 08:18:36;;;;;;;5.70;3.65;;;9.40;71.30;;;;;;5041495;28;20036;-80
2022/11/28 08:21:08;;;;;;;9.13;2.90;;;9.40;70.70;;;;;;5044270;28;20025;-80
2022/11/28 08:23:34;;;;;;;6.28;4.13;;;9.50;70.80;;;;;;5046164;28;20029;-81
2022/11/28 08:26:01;;;;;;;3.95;2.72;;;9.40;70.90;;;;;;5045979;28;20100;-75
2022/11/28 08:28:27;;;;;;;5.85;3.03;;;9.50;70.90;;;;;;5045912;28;20136;-74
2022/11/28 08:30:53;;;;;;;10.25;3.38;;;9.40;70.50;;;;;;5046631;28;20021;-75
2022/11/28 08:33:18;;;;;;;5.45;3.30;;;9.50;70.60;;;;;;5049109;28;20021;-75
2022/11/28 08:35:44;;;;;;;6.05;3.17;;;9.50;70.70;;;;;;5039659;28;20028;-76
2022/11/28 08:38:10;;;;;;;4.15;3.05;;;9.60;70.70;;;;;;5037305;28;20056;-75
2022/11/28 08:40:35;;;;;;;6.28;3.60;;;9.60;70.60;;;;;;5049795;28;20057;-75
2022/11/28 08:43:01;;;;;;;6.43;3.95;;;9.60;70.70;;;;;;5048904;28;20032;-75
2022/11/28 08:45:27;;;;;;;5.90;3.50;;;9.70;70.60;;;;;;5039492;28;20104;-76
2022/11/28 08:47:52;;;;;;;3.45;3.03;;;9.70;70.70;;;;;;5039477;28;20085;-75
2022/11/28 08:50:18;;;;;;;7.07;3.08;;;9.70;70.60;;;;;;5055000;28;20044;-75
2022/11/28 08:52:44;;;;;;;4.35;2.92;;;9.80;70.70;;;;;;5050628;28;20108;-77
2022/11/28 08:55:10;;;;;;;5.80;3.60;;;9.80;72.00;;;;;;5050657;28;20028;-77
2022/11/28 08:57:36;;;;;;;5.40;3.72;;;9.90;71.70;;;;;;5052692;28;20036;-77
2022/11/28 09:00:02;;;;;;;7.32;3.75;;;9.90;71.30;;;;;;5050890;28;20033;-77
2022/11/28 09:02:28;;;;;;;6.05;3.72;;;9.90;71.10;;;;;;5049053;28;20412;-77
2022/11/28 09:04:53;;;;;;;5.43;3.33;;;9.90;71.10;;;;;;5048197;28;20047;-77
2022/11/28 09:07:19;;;;;;;7.70;4.30;;;9.90;71.10;;;;;;5052394;28;20048;-79
2022/11/28 09:09:45;;;;;;;6.50;3.97;;;9.80;70.70;;;;;;5051442;28;20036;-76
2022/11/28 09:12:11;;;;;;;6.57;3.58;;;9.80;70.90;;;;;;5051048;28;20021;-77
2022/11/28 09:14:36;;;;;;;6.40;4.32;;;9.80;71.00;;;;;;5033699;28;20078;-78
2022/11/28 09:17:02;;;;;;;7.65;4.43;;;9.80;71.10;;;;;;5051525;28;20595;-78
2022/11/28 09:19:28;;;;;;;9.65;5.28;;;9.90;71.40;;;;;;5047728;28;20479;-78
2022/11/28 09:21:53;;;;;;;5.85;4.10;;;9.80;71.50;;;;;;5042459;28;20529;-78
2022/11/28 09:24:19;;;;;;;7.72;3.70;;;9.80;71.70;;;;;;5035374;28;20017;-78
2022/11/28 09:26:45;;;;;;;8.90;3.70;;;9.80;72.10;;;;;;5042885;28;20033;-78
2022/11/28 09:29:11;;;;;;;8.90;3.92;;;9.90;72.00;;;;;;5050426;28;20025;-78
2022/11/28 09:31:36;;;;;;;5.78;4.03;;;9.90;72.10;;;;;;5046071;28;20150;-78
2022/11/28 09:34:03;;;;;;;7.95;3.90;;;9.90;72.00;;;;;;5040408;28;20025;-77
2022/11/28 09:36:30;;;;;;;7.18;4.38;;;10.00;72.10;;;;;;5042069;28;20064;-77
2022/11/28 09:38:59;;;;;;;6.10;4.07;;;9.90;72.50;;;;;;5039435;28;20136;-76
2022/11/28 09:41:27;;;;;;;8.02;3.97;;;9.90;72.60;;;;;;5041642;28;20531;-75
2022/11/28 09:43:56;;;;;;;7.40;4.55;;;9.90;72.30;;;;;;5041553;28;20068;-76
2022/11/28 09:46:28;;;;;;;10.25;4.75;;;10.00;72.50;;;;;;5037028;28;20033;-77
2022/11/28 09:48:59;;;;;;;9.25;3.65;;;9.80;72.30;;;;;;5040949;28;20079;-82
2022/11/28 09:51:43;;;;;;;6.72;3.85;;;9.80;72.30;;;;;;5048473;28;20132;-80
2022/11/28 09:54:32;;;;;;;6.72;3.75;;;9.90;72.50;;;;;;5045292;28;20090;-77
2022/11/28 09:56:59;;;;;;;5.88;3.55;;;9.90;72.80;;;;;;5037245;28;20469;-75
2022/11/28 09:59:28;;;;;;;5.90;4.13;;;9.90;72.80;;;;;;5049706;28;20025;-80
2022/11/28 10:02:14;;;;;;;7.03;4.15;;;10.00;72.70;;;;;;5044500;28;20033;-80
2022/11/28 10:05:00;;;;;;;5.78;3.95;;;10.00;72.30;;;;;;5045989;28;20135;-81
2022/11/28 10:07:40;;;;;;;8.30;4.68;;;10.00;72.40;;;;;;5028009;28;20033;-76
2022/11/28 10:10:15;;;;;;;7.80;3.80;;;9.90;73.00;;;;;;5027502;28;20037;-77
2022/11/28 10:12:53;;;;;;;6.32;3.70;;;9.80;73.10;;;;;;5030187;28;20029;-77
2022/11/28 10:15:27;;;;;;;11.85;4.82;;;9.80;73.20;;;;;;5031888;28;20095;-76
2022/11/28 10:17:58;;;;;;;12.27;5.20;;;9.70;73.70;;;;;;5023294;28;20031;-77
2022/11/28 10:20:35;;;;;;;7.20;4.25;;;9.60;73.80;;;;;;5027879;28;20033;-77
2022/11/28 10:23:37;;;;;;;12.40;5.22;;;9.60;74.00;;;;;;5027711;28;20104;-77
2022/11/28 10:26:16;;;;;;;7.28;4.30;;;9.50;73.90;;;;;;5018440;28;20180;-77
2022/11/28 10:28:46;;;;;;;6.53;3.65;;;9.40;74.10;;;;;;5022660;28;20101;-82
2022/11/28 10:31:38;;;;;;;6.03;3.38;;;9.50;74.60;;;;;;5024661;28;20030;-80
2022/11/28 10:34:22;;;;;;;8.52;3.85;;;9.60;74.20;;;;;;5023810;28;20095;-80
2022/11/28 10:36:54;;;;;;;6.45;3.60;;;9.70;74.30;;;;;;5030293;28;20039;-80
2022/11/28 10:39:20;;;;;;;8.20;3.70;;;9.90;74.40;;;;;;5013535;28;20389;-81
2022/11/28 10:42:10;;;;;;;4.63;3.40;;;10.00;74.00;;;;;;5031868;28;20025;-81
2022/11/28 10:45:13;;;;;;;6.70;4.00;;;10.10;73.30;;;;;;5029646;28;20021;-81
2022/11/28 10:48:16;;;;;;;7.57;3.60;;;10.20;72.40;;;;;;5030349;28;20311;-79
2022/11/28 10:51:05;;;;;;;9.45;4.85;;;10.20;72.50;;;;;;5029020;28;20022;-83
2022/11/28 10:54:14;;;;;;;7.75;4.65;;;10.10;72.00;;;;;;4993454;28;20037;-81
2022/11/28 10:57:16;;;;;;;7.07;4.10;;;9.90;72.10;;;;;;5035459;28;20112;-79
2022/11/28 11:00:13;;;;;;;6.70;4.32;;;9.90;72.60;;;;;;5028555;28;20482;-79
2022/11/28 11:02:49;;;;;;;6.90;4.18;;;9.90;72.80;;;;;;5031764;28;20492;-79
2022/11/28 11:05:26;;;;;;;6.85;3.90;;;9.90;73.00;;;;;;5033263;28;20055;-80
2022/11/28 11:07:58;;;;;;;9.35;4.80;;;10.00;72.80;;;;;;5041270;28;20021;-79
2022/11/28 11:11:05;;;;;;;8.00;5.60;;;10.00;73.00;;;;;;5035826;28;20033;-79
2022/11/28 11:13:34;;;;;;;8.13;4.80;;;9.90;72.60;;;;;;5038858;28;20520;-79
2022/11/28 11:16:05;;;;;;;8.38;4.43;;;9.70;73.00;;;;;;5048538;28;20124;-79
2022/11/28 11:18:36;;;;;;;9.23;3.75;;;9.50;73.40;;;;;;5046403;28;20080;-79
2022/11/28 11:21:21;;;;;;;6.30;4.05;;;9.60;73.70;;;;;;5038683;28;20093;-80
2022/11/28 11:23:48;;;;;;;6.57;3.80;;;9.70;73.50;;;;;;5044292;28;20030;-80
2022/11/28 11:26:37;;;;;;;8.27;3.78;;;9.80;73.80;;;;;;5043303;28;20025;-81
2022/11/28 11:29:04;;;;;;;12.07;4.95;;;9.90;73.90;;;;;;5038412;28;20025;-80
2022/11/28 11:31:32;;;;;;;4.72;3.30;;;9.80;73.10;;;;;;5035631;28;20029;-81
2022/11/28 11:34:05;;;;;;;7.57;4.13;;;9.90;73.50;;;;;;5046031;28;20608;-79
2022/11/28 11:36:35;;;;;;;7.45;3.78;;;10.00;73.50;;;;;;5046213;28;20029;-80
2022/11/28 11:39:10;;;;;;;7.63;4.50;;;10.00;73.20;;;;;;5044878;28;20031;-79
2022/11/28 11:41:38;;;;;;;7.32;3.80;;;10.00;72.60;;;;;;5036726;28;20393;-80
2022/11/28 11:44:33;;;;;;;5.13;3.47;;;10.10;72.40;;;;;;5046647;28;20032;-80
2022/11/28 11:47:07;;;;;;;7.10;4.03;;;10.10;72.50;;;;;;5045373;28;20037;-81
2022/11/28 11:49:41;;;;;;;10.55;4.32;;;10.10;72.50;;;;;;5049457;28;20040;-80
2022/11/28 11:52:22;;;;;;;7.38;4.70;;;10.00;72.00;;;;;;5042715;28;20034;-80
2022/11/28 11:55:12;;;;;;;7.35;3.30;;;10.00;71.70;;;;;;5047057;28;20047;-79
2022/11/28 11:57:47;;;;;;;4.68;3.33;;;10.00;72.30;;;;;;5043223;28;20025;-79
2022/11/28 12:00:12;;;;;;;5.75;3.53;;;10.00;72.20;;;;;;5026125;28;20473;-80
2022/11/28 12:02:45;;;;;;;6.53;3.63;;;10.10;72.50;;;;;;5041251;28;20075;-80
2022/11/28 12:05:30;;;;;;;4.60;3.13;;;10.20;72.50;;;;;;5034992;28;20046;-80
2022/11/28 12:08:15;;;;;;;4.85;3.85;;;10.30;72.50;;;;;;5049134;28;20470;-80
2022/11/28 12:10:47;;;;;;;7.03;4.60;;;10.30;71.90;;;;;;5045887;28;20404;-80
2022/11/28 12:13:22;;;;;;;9.70;4.60;;;10.30;71.00;;;;;;5034486;28;20032;-79
2022/11/28 12:16:06;;;;;;;5.47;4.20;;;10.20;71.50;;;;;;5053149;28;20394;-80
2022/11/28 12:18:49;;;;;;;7.18;4.50;;;10.20;71.40;;;;;;5050063;28;20025;-80
2022/11/28 12:21:25;;;;;;;7.50;4.35;;;10.20;71.50;;;;;;5041581;28;20411;-80
2022/11/28 12:24:05;;;;;;;7.28;4.10;;;10.20;71.60;;;;;;5047555;28;20057;-80
2022/11/28 12:26:55;;;;;;;8.63;4.90;;;10.30;72.30;;;;;;5052233;28;21132;-80
2022/11/28 12:29:40;;;;;;;10.18;5.40;;;10.20;72.60;;;;;;5040869;28;20041;-80
2022/11/28 12:32:11;;;;;;;6.57;4.30;;;10.20;72.30;;;;;;5041305;28;20021;-80
2022/11/28 12:34:56;;;;;;;6.63;4.18;;;10.30;72.40;;;;;;5038818;28;20044;-81
2022/11/28 12:37:44;;;;;;;8.65;4.95;;;10.30;72.60;;;;;;5034999;28;20458;-79
2022/11/28 12:40:42;;;;;;;6.75;4.07;;;10.30;72.60;;;;;;5039846;28;20492;-79
2022/11/28 12:43:19;;;;;;;6.57;4.30;;;10.30;72.70;;;;;;5050524;28;20035;-80
2022/11/28 12:46:06;;;;;;;7.07;4.63;;;10.20;72.30;;;;;;5027539;28;20059;-79
2022/11/28 12:48:47;;;;;;;7.20;4.30;;;10.20;71.60;;;;;;5043433;28;20025;-82
2022/11/28 12:51:38;;;;;;;;;;;10.30;72.20;;;;;;5046096;28;20048;-80
2022/11/28 12:54:26;;;;;;;6.57;3.97;;;10.40;72.20;;;;;;5015690;28;19939;-80
2022/11/28 12:57:11;;;;;;;14.40;5.20;;;10.40;71.90;;;;;;5047698;28;20029;-80
2022/11/28 12:59:42;;;;;;;9.73;5.15;;;10.30;70.60;;;;;;5050898;28;20056;-81
2022/11/28 13:02:41;;;;;;;9.88;4.65;;;10.10;71.10;;;;;;5052688;28;20033;-81
2022/11/28 13:05:26;;;;;;;6.55;4.85;;;10.20;71.40;;;;;;5052345;28;20123;-81
2022/11/28 13:08:09;;;;;;;6.88;4.30;;;10.30;71.70;;;;;;5049569;28;20032;-80
2022/11/28 13:10:45;;;;;;;4.28;3.28;;;10.30;71.80;;;;;;5049934;28;20036;-80
2022/11/28 13:13:47;;;;;;;8.45;5.18;;;10.30;71.70;;;;;;5043832;28;20037;-82
2022/11/28 13:16:28;;;;;;;7.85;4.22;;;10.40;71.60;;;;;;4998485;28;20052;-82
2022/11/28 13:19:26;;;;;;;7.72;4.78;;;10.40;71.50;;;;;;5044658;28;20017;-83
2022/11/28 13:22:05;;;;;;;13.10;4.47;;;10.40;71.30;;;;;;5042318;28;20029;-83
2022/11/28 13:24:35;;;;;;;7.20;4.18;;;10.40;71.50;;;;;;5047853;28;20024;-83
2022/11/28 13:27:20;;;;;;;5.65;3.75;;;10.40;71.50;;;;;;5046027;28;20032;-84